sensor_id;sensor_type;location;lat;lon;timestamp;pressure;altitude;pressure_sealevel;temperature;humidity
15308;BME280;7755;52.208;6.964;2022-10-30T00:01:34;101271.56;;;17.50;91.16
15308;BME280;7755;52.208;6.964;2022-10-30T00:05:35;101273.50;;;17.49;91.16
15308;BME280;7755;52.208;6.964;2022-10-30T00:09:37;101279.00;;;17.49;91.34
15308;BME280;7755;52.208;6.964;2022-10-30T00:13:41;101279.25;;;17.47;91.50
15308;BME280;7755;52.208;6.964;2022-10-30T00:17:44;101280.63;;;17.45;91.48
15308;BME280;7755;52.208;6.964;2022-10-30T00:21:45;101290.53;;;17.41;91.86
15308;BME280;7755;52.208;6.964;2022-10-30T00:25:47;101300.41;;;17.37;92.01
15308;BME280;7755;52.208;6.964;2022-10-30T00:29:50;101293.78;;;17.33;92.01
15308;BME280;7755;52.208;6.964;2022-10-30T00:33:53;101296.00;;;17.31;92.38
15308;BME280;7755;52.208;6.964;2022-10-30T00:37:55;101286.91;;;17.25;92.37
15308;BME280;7755;52.208;6.964;2022-10-30T00:41:57;101293.22;;;17.21;92.57
15308;BME280;7755;52.208;6.964;2022-10-30T00:46:06;101281.41;;;17.15;92.95
15308;BME280;7755;52.208;6.964;2022-10-30T00:50:12;101295.91;;;17.05;93.27
15308;BME280;7755;52.208;6.964;2022-10-30T00:54:19;101297.81;;;16.95;93.92
15308;BME280;7755;52.208;6.964;2022-10-30T00:58:28;101291.72;;;16.87;94.28
15308;BME280;7755;52.208;6.964;2022-10-30T01:02:33;101292.50;;;16.78;94.69
15308;BME280;7755;52.208;6.964;2022-10-30T01:06:37;101296.00;;;16.68;95.40
15308;BME280;7755;52.208;6.964;2022-10-30T01:10:40;101291.03;;;16.60;95.50
15308;BME280;7755;52.208;6.964;2022-10-30T01:14:44;101290.16;;;16.54;95.87
15308;BME280;7755;52.208;6.964;2022-10-30T01:18:58;101295.84;;;16.43;96.33
15308;BME280;7755;52.208;6.964;2022-10-30T01:23:16;101300.75;;;16.35;96.69
15308;BME280;7755;52.208;6.964;2022-10-30T01:27:32;101290.56;;;16.31;97.15
15308;BME280;7755;52.208;6.964;2022-10-30T01:31:49;101295.44;;;16.24;97.59
15308;BME280;7755;52.208;6.964;2022-10-30T01:35:59;101299.50;;;16.16;97.86
15308;BME280;7755;52.208;6.964;2022-10-30T01:40:08;101301.69;;;16.14;98.19
15308;BME280;7755;52.208;6.964;2022-10-30T01:44:12;101300.28;;;16.11;98.40
15308;BME280;7755;52.208;6.964;2022-10-30T01:48:46;101309.88;;;16.09;98.67
15308;BME280;7755;52.208;6.964;2022-10-30T01:52:56;101303.84;;;16.07;99.02
15308;BME280;7755;52.208;6.964;2022-10-30T01:57:06;101303.00;;;16.06;99.08
15308;BME280;7755;52.208;6.964;2022-10-30T02:01:13;101300.81;;;16.08;99.23
15308;BME280;7755;52.208;6.964;2022-10-30T02:05:20;101304.94;;;16.06;99.38
15308;BME280;7755;52.208;6.964;2022-10-30T02:09:26;101300.78;;;16.03;99.67
15308;BME280;7755;52.208;6.964;2022-10-30T02:13:28;101300.72;;;15.98;99.92
15308;BME280;7755;52.208;6.964;2022-10-30T02:17:30;101299.66;;;15.99;99.89
15308;BME280;7755;52.208;6.964;2022-10-30T02:21:33;101298.53;;;15.95;100.00
15308;BME280;7755;52.208;6.964;2022-10-30T02:25:35;101300.94;;;15.92;100.00
15308;BME280;7755;52.208;6.964;2022-10-30T02:29:37;101295.72;;;15.85;100.00
15308;BME280;7755;52.208;6.964;2022-10-30T02:33:43;101297.59;;;15.79;100.00
15308;BME280;7755;52.208;6.964;2022-10-30T02:37:47;101304.38;;;15.72;100.00
15308;BME280;7755;52.208;6.964;2022-10-30T02:41:49;101310.56;;;15.62;100.00
15308;BME280;7755;52.208;6.964;2022-10-30T02:45:51;101311.50;;;15.51;100.00
15308;BME280;7755;52.208;6.964;2022-10-30T02:49:54;101317.72;;;15.41;100.00
15308;BME280;7755;52.208;6.964;2022-10-30T02:53:58;101314.34;;;15.34;100.00
15308;BME280;7755;52.208;6.964;2022-10-30T02:58:01;101311.81;;;15.27;100.00
15308;BME280;7755;52.208;6.964;2022-10-30T03:02:06;101311.72;;;15.17;100.00
15308;BME280;7755;52.208;6.964;2022-10-30T03:06:10;101306.94;;;15.08;100.00
15308;BME280;7755;52.208;6.964;2022-10-30T03:10:13;101299.16;;;14.99;100.00
15308;BME280;7755;52.208;6.964;2022-10-30T03:14:15;101308.41;;;14.93;100.00
15308;BME280;7755;52.208;6.964;2022-10-30T03:18:17;101304.75;;;14.88;100.00
15308;BME280;7755;52.208;6.964;2022-10-30T03:22:21;101310.44;;;14.81;100.00
15308;BME280;7755;52.208;6.964;2022-10-30T03:26:24;101305.13;;;14.74;100.00
15308;BME280;7755;52.208;6.964;2022-10-30T03:30:32;101313.78;;;14.66;100.00
15308;BME280;7755;52.208;6.964;2022-10-30T03:34:35;101316.72;;;14.60;100.00
15308;BME280;7755;52.208;6.964;2022-10-30T03:38:41;101318.28;;;14.56;100.00
15308;BME280;7755;52.208;6.964;2022-10-30T03:42:47;101319.06;;;14.51;100.00
15308;BME280;7755;52.208;6.964;2022-10-30T03:46:49;101319.69;;;14.41;100.00
15308;BME280;7755;52.208;6.964;2022-10-30T03:50:58;101315.00;;;14.37;100.00
15308;BME280;7755;52.208;6.964;2022-10-30T03:55:01;101320.69;;;14.35;100.00
15308;BME280;7755;52.208;6.964;2022-10-30T03:59:05;101324.25;;;14.36;100.00
15308;BME280;7755;52.208;6.964;2022-10-30T04:03:10;101321.78;;;14.34;100.00
15308;BME280;7755;52.208;6.964;2022-10-30T04:07:15;101336.22;;;14.30;100.00
15308;BME280;7755;52.208;6.964;2022-10-30T04:11:17;101333.13;;;14.26;100.00
15308;BME280;7755;52.208;6.964;2022-10-30T04:15:20;101329.22;;;14.22;100.00
15308;BME280;7755;52.208;6.964;2022-10-30T04:19:22;101331.09;;;14.16;100.00
15308;BME280;7755;52.208;6.964;2022-10-30T04:23:24;101325.84;;;14.15;100.00
15308;BME280;7755;52.208;6.964;2022-10-30T04:27:27;101335.63;;;14.11;100.00
15308;BME280;7755;52.208;6.964;2022-10-30T04:31:30;101327.34;;;14.06;100.00
15308;BME280;7755;52.208;6.964;2022-10-30T04:35:34;101319.66;;;14.03;100.00
15308;BME280;7755;52.208;6.964;2022-10-30T04:39:38;101326.44;;;14.00;100.00
15308;BME280;7755;52.208;6.964;2022-10-30T04:43:48;101322.56;;;13.96;100.00
15308;BME280;7755;52.208;6.964;2022-10-30T04:47:51;101320.28;;;13.93;100.00
15308;BME280;7755;52.208;6.964;2022-10-30T04:51:53;101317.25;;;13.89;100.00
15308;BME280;7755;52.208;6.964;2022-10-30T04:55:56;101324.16;;;13.80;100.00
15308;BME280;7755;52.208;6.964;2022-10-30T04:59:58;101322.19;;;13.76;100.00
15308;BME280;7755;52.208;6.964;2022-10-30T05:04:01;101322.94;;;13.71;100.00
15308;BME280;7755;52.208;6.964;2022-10-30T05:08:05;101314.63;;;13.66;100.00
15308;BME280;7755;52.208;6.964;2022-10-30T05:12:06;101314.53;;;13.61;100.00
15308;BME280;7755;52.208;6.964;2022-10-30T05:16:16;101316.38;;;13.55;100.00
15308;BME280;7755;52.208;6.964;2022-10-30T05:20:20;101313.78;;;13.49;100.00
15308;BME280;7755;52.208;6.964;2022-10-30T05:24:21;101315.84;;;13.42;100.00
15308;BME280;7755;52.208;6.964;2022-10-30T05:28:23;101314.91;;;13.36;100.00
15308;BME280;7755;52.208;6.964;2022-10-30T05:32:30;101316.72;;;13.30;100.00
15308;BME280;7755;52.208;6.964;2022-10-30T05:36:33;101316.03;;;13.23;100.00
15308;BME280;7755;52.208;6.964;2022-10-30T05:40:36;101322.16;;;13.19;100.00
15308;BME280;7755;52.208;6.964;2022-10-30T05:44:38;101319.34;;;13.13;100.00
15308;BME280;7755;52.208;6.964;2022-10-30T05:48:41;101323.63;;;13.09;100.00
15308;BME280;7755;52.208;6.964;2022-10-30T05:52:45;101323.53;;;13.04;100.00
15308;BME280;7755;52.208;6.964;2022-10-30T05:56:47;101324.03;;;13.01;100.00
15308;BME280;7755;52.208;6.964;2022-10-30T06:00:49;101320.94;;;12.98;100.00
15308;BME280;7755;52.208;6.964;2022-10-30T06:05:04;101329.84;;;12.93;100.00
15308;BME280;7755;52.208;6.964;2022-10-30T06:09:07;101326.28;;;12.93;100.00
15308;BME280;7755;52.208;6.964;2022-10-30T06:13:28;101325.13;;;12.89;100.00
15308;BME280;7755;52.208;6.964;2022-10-30T06:17:40;101334.84;;;12.84;100.00
15308;BME280;7755;52.208;6.964;2022-10-30T06:21:48;101351.72;;;12.81;100.00
15308;BME280;7755;52.208;6.964;2022-10-30T06:26:01;101345.78;;;12.73;100.00
15308;BME280;7755;52.208;6.964;2022-10-30T06:30:15;101346.75;;;12.67;100.00
15308;BME280;7755;52.208;6.964;2022-10-30T06:34:17;101345.56;;;12.63;100.00
15308;BME280;7755;52.208;6.964;2022-10-30T06:38:19;101342.59;;;12.64;100.00
15308;BME280;7755;52.208;6.964;2022-10-30T06:42:24;101334.28;;;12.59;100.00
15308;BME280;7755;52.208;6.964;2022-10-30T06:46:52;101337.84;;;12.60;100.00
15308;BME280;7755;52.208;6.964;2022-10-30T06:50:54;101342.00;;;12.62;100.00
15308;BME280;7755;52.208;6.964;2022-10-30T06:54:57;101340.09;;;12.63;100.00
15308;BME280;7755;52.208;6.964;2022-10-30T06:59:25;101339.03;;;12.64;100.00
15308;BME280;7755;52.208;6.964;2022-10-30T07:03:45;101340.69;;;12.65;100.00
15308;BME280;7755;52.208;6.964;2022-10-30T07:07:47;101343.16;;;12.66;100.00
15308;BME280;7755;52.208;6.964;2022-10-30T07:11:49;101342.94;;;12.68;100.00
15308;BME280;7755;52.208;6.964;2022-10-30T07:15:57;101337.72;;;12.66;100.00
15308;BME280;7755;52.208;6.964;2022-10-30T07:20:05;101351.59;;;12.65;100.00
15308;BME280;7755;52.208;6.964;2022-10-30T07:24:07;101337.50;;;12.68;100.00
15308;BME280;7755;52.208;6.964;2022-10-30T07:28:18;101355.84;;;12.72;100.00
15308;BME280;7755;52.208;6.964;2022-10-30T07:32:41;101360.84;;;12.75;100.00
15308;BME280;7755;52.208;6.964;2022-10-30T07:36:47;101363.09;;;12.78;100.00
15308;BME280;7755;52.208;6.964;2022-10-30T07:40:59;101356.94;;;12.83;100.00
15308;BME280;7755;52.208;6.964;2022-10-30T07:45:36;101351.59;;;12.88;100.00
15308;BME280;7755;52.208;6.964;2022-10-30T07:49:58;101353.81;;;12.91;100.00
15308;BME280;7755;52.208;6.964;2022-10-30T07:54:02;101354.50;;;12.98;100.00
15308;BME280;7755;52.208;6.964;2022-10-30T07:58:05;101355.22;;;13.05;100.00
15308;BME280;7755;52.208;6.964;2022-10-30T08:02:25;101352.97;;;13.14;100.00
15308;BME280;7755;52.208;6.964;2022-10-30T08:06:47;101352.09;;;13.25;100.00
15308;BME280;7755;52.208;6.964;2022-10-30T08:10:49;101348.97;;;13.33;100.00
15308;BME280;7755;52.208;6.964;2022-10-30T08:14:51;101341.81;;;13.44;100.00
15308;BME280;7755;52.208;6.964;2022-10-30T08:18:53;101344.25;;;13.57;100.00
15308;BME280;7755;52.208;6.964;2022-10-30T08:22:59;101335.03;;;13.75;100.00
15308;BME280;7755;52.208;6.964;2022-10-30T08:27:01;101339.44;;;13.93;100.00
15308;BME280;7755;52.208;6.964;2022-10-30T08:31:04;101344.31;;;14.08;100.00
15308;BME280;7755;52.208;6.964;2022-10-30T08:35:25;101337.44;;;14.22;100.00
15308;BME280;7755;52.208;6.964;2022-10-30T08:39:31;101336.63;;;14.38;100.00
15308;BME280;7755;52.208;6.964;2022-10-30T08:43:51;101326.25;;;14.57;100.00
15308;BME280;7755;52.208;6.964;2022-10-30T08:47:57;101325.19;;;14.80;100.00
15308;BME280;7755;52.208;6.964;2022-10-30T08:52:01;101332.28;;;14.98;100.00
15308;BME280;7755;52.208;6.964;2022-10-30T08:56:05;101321.25;;;15.15;100.00
15308;BME280;7755;52.208;6.964;2022-10-30T09:00:23;101317.91;;;15.35;100.00
15308;BME280;7755;52.208;6.964;2022-10-30T09:04:44;101328.28;;;15.54;100.00
15308;BME280;7755;52.208;6.964;2022-10-30T09:09:04;101318.06;;;15.72;100.00
15308;BME280;7755;52.208;6.964;2022-10-30T09:13:15;101309.97;;;15.87;100.00
15308;BME280;7755;52.208;6.964;2022-10-30T09:17:17;101315.03;;;16.00;100.00
15308;BME280;7755;52.208;6.964;2022-10-30T09:21:20;101319.25;;;16.13;100.00
15308;BME280;7755;52.208;6.964;2022-10-30T09:25:25;101317.66;;;16.22;100.00
15308;BME280;7755;52.208;6.964;2022-10-30T09:29:49;101326.53;;;16.34;100.00
15308;BME280;7755;52.208;6.964;2022-10-30T09:33:57;101321.94;;;16.45;100.00
15308;BME280;7755;52.208;6.964;2022-10-30T09:38:27;101323.94;;;16.55;100.00
15308;BME280;7755;52.208;6.964;2022-10-30T09:42:39;101325.91;;;16.64;100.00
15308;BME280;7755;52.208;6.964;2022-10-30T09:46:55;101308.44;;;16.76;100.00
15308;BME280;7755;52.208;6.964;2022-10-30T09:51:08;101310.13;;;16.87;100.00
15308;BME280;7755;52.208;6.964;2022-10-30T09:55:25;101303.84;;;16.97;100.00
15308;BME280;7755;52.208;6.964;2022-10-30T09:59:39;101318.19;;;17.09;100.00
15308;BME280;7755;52.208;6.964;2022-10-30T10:03:58;101311.88;;;17.18;100.00
15308;BME280;7755;52.208;6.964;2022-10-30T10:08:17;101314.69;;;17.29;100.00
15308;BME280;7755;52.208;6.964;2022-10-30T10:12:42;101322.41;;;17.42;100.00
15308;BME280;7755;52.208;6.964;2022-10-30T10:16:50;101323.53;;;17.51;100.00
15308;BME280;7755;52.208;6.964;2022-10-30T10:20:57;101330.16;;;17.65;100.00
15308;BME280;7755;52.208;6.964;2022-10-30T10:25:02;101316.44;;;17.81;100.00
15308;BME280;7755;52.208;6.964;2022-10-30T10:29:22;101310.69;;;17.92;100.00
15308;BME280;7755;52.208;6.964;2022-10-30T10:33:43;101315.34;;;18.07;100.00
15308;BME280;7755;52.208;6.964;2022-10-30T10:37:57;101308.19;;;18.26;100.00
15308;BME280;7755;52.208;6.964;2022-10-30T10:42:13;101320.56;;;18.44;100.00
15308;BME280;7755;52.208;6.964;2022-10-30T10:46:32;101311.44;;;18.59;100.00
15308;BME280;7755;52.208;6.964;2022-10-30T10:50:45;101307.03;;;18.73;100.00
15308;BME280;7755;52.208;6.964;2022-10-30T10:54:51;101302.84;;;18.86;100.00
15308;BME280;7755;52.208;6.964;2022-10-30T10:58:56;101301.72;;;18.97;100.00
15308;BME280;7755;52.208;6.964;2022-10-30T11:03:04;101295.84;;;19.09;100.00
15308;BME280;7755;52.208;6.964;2022-10-30T11:07:18;101287.25;;;19.21;100.00
15308;BME280;7755;52.208;6.964;2022-10-30T11:11:22;101295.72;;;19.34;100.00
15308;BME280;7755;52.208;6.964;2022-10-30T11:15:36;101299.25;;;19.45;98.87
15308;BME280;7755;52.208;6.964;2022-10-30T11:19:40;101297.53;;;19.54;98.81
15308;BME280;7755;52.208;6.964;2022-10-30T11:23:43;101309.31;;;19.70;98.38
15308;BME280;7755;52.208;6.964;2022-10-30T11:27:48;101305.34;;;19.86;96.60
15308;BME280;7755;52.208;6.964;2022-10-30T11:31:59;101301.91;;;20.00;95.74
15308;BME280;7755;52.208;6.964;2022-10-30T11:36:07;101301.25;;;20.13;95.47
15308;BME280;7755;52.208;6.964;2022-10-30T11:40:16;101297.84;;;20.21;92.57
15308;BME280;7755;52.208;6.964;2022-10-30T11:44:20;101297.22;;;20.29;92.83
15308;BME280;7755;52.208;6.964;2022-10-30T11:48:26;101294.31;;;20.44;92.63
15308;BME280;7755;52.208;6.964;2022-10-30T11:52:35;101294.66;;;20.67;91.92
15308;BME280;7755;52.208;6.964;2022-10-30T11:56:45;101298.88;;;20.83;91.19
15308;BME280;7755;52.208;6.964;2022-10-30T12:00:58;101286.22;;;21.01;89.43
15308;BME280;7755;52.208;6.964;2022-10-30T12:05:01;101281.81;;;21.00;85.78
15308;BME280;7755;52.208;6.964;2022-10-30T12:09:10;101284.22;;;21.07;86.86
15308;BME280;7755;52.208;6.964;2022-10-30T12:13:14;101277.66;;;21.21;86.72
15308;BME280;7755;52.208;6.964;2022-10-30T12:17:18;101277.75;;;21.35;84.85
15308;BME280;7755;52.208;6.964;2022-10-30T12:21:20;101268.25;;;21.41;84.68
15308;BME280;7755;52.208;6.964;2022-10-30T12:25:23;101260.16;;;21.45;83.34
15308;BME280;7755;52.208;6.964;2022-10-30T12:29:37;101264.00;;;21.49;82.52
15308;BME280;7755;52.208;6.964;2022-10-30T12:33:45;101256.44;;;21.55;81.90
15308;BME280;7755;52.208;6.964;2022-10-30T12:37:51;101266.59;;;21.59;81.58
15308;BME280;7755;52.208;6.964;2022-10-30T12:41:58;101254.94;;;21.62;80.69
15308;BME280;7755;52.208;6.964;2022-10-30T12:46:15;101257.91;;;21.66;78.90
15308;BME280;7755;52.208;6.964;2022-10-30T12:50:25;101255.44;;;21.64;79.72
15308;BME280;7755;52.208;6.964;2022-10-30T12:54:31;101259.38;;;21.77;80.14
15308;BME280;7755;52.208;6.964;2022-10-30T12:58:39;101247.09;;;21.83;78.50
15308;BME280;7755;52.208;6.964;2022-10-30T13:02:49;101228.75;;;21.87;79.07
15308;BME280;7755;52.208;6.964;2022-10-30T13:06:58;101235.09;;;21.88;77.82
15308;BME280;7755;52.208;6.964;2022-10-30T13:11:10;101238.91;;;21.92;77.94
15308;BME280;7755;52.208;6.964;2022-10-30T13:15:20;101242.19;;;21.94;78.38
15308;BME280;7755;52.208;6.964;2022-10-30T13:19:24;101240.25;;;21.94;78.23
15308;BME280;7755;52.208;6.964;2022-10-30T13:23:35;101244.16;;;21.93;77.34
15308;BME280;7755;52.208;6.964;2022-10-30T13:27:46;101234.94;;;21.98;77.12
15308;BME280;7755;52.208;6.964;2022-10-30T13:32:06;101241.50;;;21.88;76.82
15308;BME280;7755;52.208;6.964;2022-10-30T13:36:18;101246.56;;;21.81;77.14
15308;BME280;7755;52.208;6.964;2022-10-30T13:40:29;101235.28;;;21.77;78.17
15308;BME280;7755;52.208;6.964;2022-10-30T13:44:39;101239.63;;;21.84;78.93
15308;BME280;7755;52.208;6.964;2022-10-30T13:48:56;101233.56;;;21.82;78.57
15308;BME280;7755;52.208;6.964;2022-10-30T13:53:02;101236.34;;;21.82;79.92
15308;BME280;7755;52.208;6.964;2022-10-30T13:57:13;101235.59;;;21.76;80.15
15308;BME280;7755;52.208;6.964;2022-10-30T14:01:21;101242.34;;;21.70;80.79
15308;BME280;7755;52.208;6.964;2022-10-30T14:05:27;101238.75;;;21.69;81.40
15308;BME280;7755;52.208;6.964;2022-10-30T14:09:36;101250.41;;;21.66;81.18
15308;BME280;7755;52.208;6.964;2022-10-30T14:13:47;101246.69;;;21.57;82.36
15308;BME280;7755;52.208;6.964;2022-10-30T14:18:28;101245.75;;;21.48;83.84
15308;BME280;7755;52.208;6.964;2022-10-30T14:22:31;101239.47;;;21.42;84.86
15308;BME280;7755;52.208;6.964;2022-10-30T14:26:33;101224.44;;;21.30;84.87
15308;BME280;7755;52.208;6.964;2022-10-30T14:30:36;101225.00;;;21.26;84.26
15308;BME280;7755;52.208;6.964;2022-10-30T14:34:42;101214.03;;;21.21;84.15
15308;BME280;7755;52.208;6.964;2022-10-30T14:38:58;101211.78;;;21.23;85.01
15308;BME280;7755;52.208;6.964;2022-10-30T14:43:05;101212.56;;;21.29;85.27
15308;BME280;7755;52.208;6.964;2022-10-30T14:51:43;101212.09;;;21.22;84.57
15308;BME280;7755;52.208;6.964;2022-10-30T14:55:54;101213.78;;;21.18;84.33
15308;BME280;7755;52.208;6.964;2022-10-30T15:00:28;101211.09;;;21.13;86.02
15308;BME280;7755;52.208;6.964;2022-10-30T15:04:44;101205.66;;;21.08;86.90
15308;BME280;7755;52.208;6.964;2022-10-30T15:09:07;101220.13;;;20.99;87.57
15308;BME280;7755;52.208;6.964;2022-10-30T15:13:16;101222.22;;;20.89;88.60
15308;BME280;7755;52.208;6.964;2022-10-30T15:17:24;101214.88;;;20.79;89.33
15308;BME280;7755;52.208;6.964;2022-10-30T15:21:30;101224.44;;;20.68;90.13
15308;BME280;7755;52.208;6.964;2022-10-30T15:25:37;101232.31;;;20.56;90.43
15308;BME280;7755;52.208;6.964;2022-10-30T15:29:48;101223.63;;;20.38;91.49
15308;BME280;7755;52.208;6.964;2022-10-30T15:33:51;101229.88;;;20.25;91.97
15308;BME280;7755;52.208;6.964;2022-10-30T15:38:00;101236.63;;;20.14;92.91
15308;BME280;7755;52.208;6.964;2022-10-30T15:42:03;101239.81;;;19.97;93.76
15308;BME280;7755;52.208;6.964;2022-10-30T15:46:07;101244.41;;;19.78;94.86
15308;BME280;7755;52.208;6.964;2022-10-30T15:50:10;101253.91;;;19.61;95.56
15308;BME280;7755;52.208;6.964;2022-10-30T15:54:16;101251.28;;;19.41;96.74
15308;BME280;7755;52.208;6.964;2022-10-30T15:58:21;101254.69;;;19.23;98.00
15308;BME280;7755;52.208;6.964;2022-10-30T16:02:24;101268.34;;;19.04;98.96
15308;BME280;7755;52.208;6.964;2022-10-30T16:06:27;101272.81;;;18.85;99.84
15308;BME280;7755;52.208;6.964;2022-10-30T16:10:33;101277.00;;;18.72;100.00
15308;BME280;7755;52.208;6.964;2022-10-30T16:14:35;101273.41;;;18.61;100.00
15308;BME280;7755;52.208;6.964;2022-10-30T16:18:38;101264.38;;;18.50;100.00
15308;BME280;7755;52.208;6.964;2022-10-30T16:22:40;101275.69;;;18.39;100.00
15308;BME280;7755;52.208;6.964;2022-10-30T16:26:44;101273.78;;;18.24;100.00
15308;BME280;7755;52.208;6.964;2022-10-30T16:30:46;101274.63;;;18.14;100.00
15308;BME280;7755;52.208;6.964;2022-10-30T16:34:49;101288.94;;;18.06;100.00
15308;BME280;7755;52.208;6.964;2022-10-30T16:38:55;101297.75;;;17.93;100.00
15308;BME280;7755;52.208;6.964;2022-10-30T16:43:00;101293.38;;;17.82;100.00
15308;BME280;7755;52.208;6.964;2022-10-30T16:47:06;101294.69;;;17.64;100.00
15308;BME280;7755;52.208;6.964;2022-10-30T16:51:14;101281.16;;;17.47;100.00
15308;BME280;7755;52.208;6.964;2022-10-30T16:55:19;101291.88;;;17.33;100.00
15308;BME280;7755;52.208;6.964;2022-10-30T16:59:46;101292.94;;;17.27;100.00
15308;BME280;7755;52.208;6.964;2022-10-30T17:03:50;101302.03;;;17.23;100.00
15308;BME280;7755;52.208;6.964;2022-10-30T17:07:53;101312.13;;;17.12;100.00
15308;BME280;7755;52.208;6.964;2022-10-30T17:12:18;101318.38;;;16.87;100.00
15308;BME280;7755;52.208;6.964;2022-10-30T17:16:23;101332.31;;;16.75;100.00
15308;BME280;7755;52.208;6.964;2022-10-30T17:20:26;101337.13;;;16.58;100.00
15308;BME280;7755;52.208;6.964;2022-10-30T17:24:31;101343.06;;;16.40;100.00
15308;BME280;7755;52.208;6.964;2022-10-30T17:28:35;101347.09;;;16.32;100.00
15308;BME280;7755;52.208;6.964;2022-10-30T17:32:44;101349.81;;;16.27;100.00
15308;BME280;7755;52.208;6.964;2022-10-30T17:36:47;101354.91;;;16.13;100.00
15308;BME280;7755;52.208;6.964;2022-10-30T17:40:49;101364.13;;;16.02;100.00
15308;BME280;7755;52.208;6.964;2022-10-30T17:44:51;101369.84;;;15.95;100.00
15308;BME280;7755;52.208;6.964;2022-10-30T17:48:56;101368.94;;;15.90;100.00
15308;BME280;7755;52.208;6.964;2022-10-30T17:52:58;101381.78;;;15.84;100.00
15308;BME280;7755;52.208;6.964;2022-10-30T17:57:00;101395.47;;;15.79;100.00
15308;BME280;7755;52.208;6.964;2022-10-30T18:01:04;101400.63;;;15.75;100.00
15308;BME280;7755;52.208;6.964;2022-10-30T18:05:13;101400.31;;;15.72;100.00
15308;BME280;7755;52.208;6.964;2022-10-30T18:09:16;101401.91;;;15.68;100.00
15308;BME280;7755;52.208;6.964;2022-10-30T18:13:18;101408.22;;;15.68;100.00
15308;BME280;7755;52.208;6.964;2022-10-30T18:17:20;101405.00;;;15.76;100.00
15308;BME280;7755;52.208;6.964;2022-10-30T18:21:24;101406.72;;;15.82;100.00
15308;BME280;7755;52.208;6.964;2022-10-30T18:25:31;101417.56;;;15.94;100.00
15308;BME280;7755;52.208;6.964;2022-10-30T18:29:34;101410.81;;;16.07;100.00
15308;BME280;7755;52.208;6.964;2022-10-30T18:33:35;101414.22;;;16.19;100.00
15308;BME280;7755;52.208;6.964;2022-10-30T18:37:39;101406.06;;;16.29;100.00
15308;BME280;7755;52.208;6.964;2022-10-30T18:41:43;101410.56;;;16.41;100.00
15308;BME280;7755;52.208;6.964;2022-10-30T18:45:45;101412.81;;;16.49;100.00
15308;BME280;7755;52.208;6.964;2022-10-30T18:49:47;101406.78;;;16.52;100.00
15308;BME280;7755;52.208;6.964;2022-10-30T18:53:50;101395.31;;;16.55;100.00
15308;BME280;7755;52.208;6.964;2022-10-30T18:57:53;101392.84;;;16.53;100.00
15308;BME280;7755;52.208;6.964;2022-10-30T19:01:54;101414.53;;;16.55;100.00
15308;BME280;7755;52.208;6.964;2022-10-30T19:05:57;101410.13;;;16.54;100.00
15308;BME280;7755;52.208;6.964;2022-10-30T19:10:01;101399.94;;;16.49;100.00
15308;BME280;7755;52.208;6.964;2022-10-30T19:14:08;101425.41;;;16.45;100.00
15308;BME280;7755;52.208;6.964;2022-10-30T19:18:13;101432.81;;;16.44;100.00
15308;BME280;7755;52.208;6.964;2022-10-30T19:22:16;101442.69;;;16.40;100.00
15308;BME280;7755;52.208;6.964;2022-10-30T19:26:20;101436.03;;;16.36;100.00
15308;BME280;7755;52.208;6.964;2022-10-30T19:30:22;101453.59;;;16.35;100.00
15308;BME280;7755;52.208;6.964;2022-10-30T19:34:25;101458.00;;;16.36;100.00
15308;BME280;7755;52.208;6.964;2022-10-30T19:38:27;101460.19;;;16.34;100.00
15308;BME280;7755;52.208;6.964;2022-10-30T19:42:31;101481.56;;;16.32;100.00
15308;BME280;7755;52.208;6.964;2022-10-30T19:46:33;101478.81;;;16.32;100.00
15308;BME280;7755;52.208;6.964;2022-10-30T19:50:37;101480.72;;;16.31;100.00
15308;BME280;7755;52.208;6.964;2022-10-30T19:54:40;101490.00;;;16.25;100.00
15308;BME280;7755;52.208;6.964;2022-10-30T19:58:43;101483.94;;;16.23;100.00
15308;BME280;7755;52.208;6.964;2022-10-30T20:02:46;101493.28;;;16.22;100.00
15308;BME280;7755;52.208;6.964;2022-10-30T20:06:48;101500.69;;;16.22;100.00
15308;BME280;7755;52.208;6.964;2022-10-30T20:10:51;101497.09;;;16.21;100.00
15308;BME280;7755;52.208;6.964;2022-10-30T20:14:56;101492.72;;;16.20;100.00
15308;BME280;7755;52.208;6.964;2022-10-30T20:18:58;101501.78;;;16.21;100.00
15308;BME280;7755;52.208;6.964;2022-10-30T20:22:59;101503.09;;;16.18;100.00
15308;BME280;7755;52.208;6.964;2022-10-30T20:27:02;101506.66;;;16.19;100.00
15308;BME280;7755;52.208;6.964;2022-10-30T20:31:08;101504.19;;;16.17;100.00
15308;BME280;7755;52.208;6.964;2022-10-30T20:35:12;101522.00;;;16.15;100.00
15308;BME280;7755;52.208;6.964;2022-10-30T20:39:16;101520.59;;;16.12;100.00
15308;BME280;7755;52.208;6.964;2022-10-30T20:43:19;101512.13;;;16.14;100.00
15308;BME280;7755;52.208;6.964;2022-10-30T20:47:24;101522.00;;;16.15;100.00
15308;BME280;7755;52.208;6.964;2022-10-30T20:51:28;101514.03;;;16.13;100.00
15308;BME280;7755;52.208;6.964;2022-10-30T20:55:32;101533.25;;;16.13;100.00
15308;BME280;7755;52.208;6.964;2022-10-30T20:59:51;101534.56;;;16.10;100.00
15308;BME280;7755;52.208;6.964;2022-10-30T21:03:55;101537.84;;;16.07;100.00
15308;BME280;7755;52.208;6.964;2022-10-30T21:07:57;101547.16;;;16.06;100.00
15308;BME280;7755;52.208;6.964;2022-10-30T21:12:00;101548.47;;;16.04;100.00
15308;BME280;7755;52.208;6.964;2022-10-30T21:16:04;101559.44;;;16.04;100.00
15308;BME280;7755;52.208;6.964;2022-10-30T21:20:09;101560.81;;;16.01;100.00
15308;BME280;7755;52.208;6.964;2022-10-30T21:24:12;101568.47;;;15.99;100.00
15308;BME280;7755;52.208;6.964;2022-10-30T21:28:15;101567.88;;;15.97;100.00
15308;BME280;7755;52.208;6.964;2022-10-30T21:32:17;101585.41;;;15.96;100.00
15308;BME280;7755;52.208;6.964;2022-10-30T21:36:21;101578.81;;;15.92;100.00
15308;BME280;7755;52.208;6.964;2022-10-30T21:40:28;101578.47;;;15.89;100.00